Time;durP1;ratioP1;P1;durP2;ratioP2;P2;SDS_P1;SDS_P2;PMS_P1;PMS_P2;Temp;Humidity;BMP_temperature;BMP_pressure;BME280_temperature;BME280_humidity;BME280_pressure;Samples;Min_cycle;Max_cycle;Signal;HPM_P1;HPM_P2
2023/04/01 00:01:52;;;;;;;;;;;;;;;;;;4961112;28;89659;-69
2023/04/01 00:04:17;;;;;;;;;;;;;;;;;;4952165;28;89222;-72
2023/04/01 00:06:42;;;;;;;;;;;;;;;;;;4956408;28;89228;-65
2023/04/01 00:09:07;;;;;;;;;;;;;;;;;;4955023;28;90950;-68
2023/04/01 00:11:33;;;;;;;;;;;;;;;;;;4960048;28;89513;-66
2023/04/01 00:13:58;;;;;;;;;;;;;;;;;;4967979;28;89670;-69
2023/04/01 00:16:23;;;;;;;;;;;;;;;;;;4955000;28;89442;-70
2023/04/01 00:18:50;;;;;;;;;;;;;;;;;;4962602;28;89460;-68
2023/04/01 00:21:16;;;;;;;;;;;;;;;;;;4972807;28;92435;-73
2023/04/01 00:23:41;;;;;;;;;;;;;;;;;;4958044;28;90147;-69
2023/04/01 00:26:06;;;;;;;;;;;;;;;;;;4961358;28;89653;-66
2023/04/01 00:28:33;;;;;;;;;;;;;;;;;;4990791;28;92013;-70
2023/04/01 00:30:58;;;;;;;;;;;;;;;;;;4957481;28;89996;-71
2023/04/01 00:33:23;;;;;;;;;;;;;;;;;;4960435;28;90320;-66
2023/04/01 00:35:48;;;;;;;;;;;;;;;;;;4955370;28;89429;-68
2023/04/01 00:38:14;;;;;;;;;;;;;;;;;;4959935;28;89565;-66
2023/04/01 00:40:43;;;;;;;;;;;;;;;;;;4958293;28;89714;-68
2023/04/01 00:43:10;;;;;;;;;;;;;;;;;;4958436;28;89627;-71
2023/04/01 00:45:37;;;;;;;;;;;;;;;;;;4955335;28;89055;-71
2023/04/01 00:48:23;;;;;;;;;;;;;;;;;;4952623;28;89784;-69
2023/04/01 00:50:52;;;;;;;;;;;;;;;;;;4961867;28;89062;-67
2023/04/01 00:53:19;;;;;;;;;;;;;;;;;;4954861;28;89653;-71
2023/04/01 00:55:48;;;;;;;;;;;;;;;;;;4957021;28;89679;-68
2023/04/01 00:58:16;;;;;;;;;;;;;;;;;;4955545;28;89537;-71
2023/04/01 01:00:42;;;;;;;;;;;;;;;;;;4955147;28;90859;-71
2023/04/01 01:03:08;;;;;;;;;;;;;;;;;;4957499;28;91057;-70
2023/04/01 01:05:51;;;;;;;;;;;;;;;;;;4957761;28;89730;-67
2023/04/01 01:08:41;;;;;;;;;;;;;;;;;;4955052;28;89355;-67
2023/04/01 01:11:08;;;;;;;;;;;;;;;;;;4956909;28;89273;-71
2023/04/01 01:13:42;;;;;;;;;;;;;;;;;;4952051;28;89555;-68
2023/04/01 01:16:17;;;;;;;;;;;;;;;;;;4955572;28;89621;-70
2023/04/01 01:18:53;;;;;;;;;;;;;;;;;;4958622;28;89582;-68
2023/04/01 01:21:20;;;;;;;;;;;;;;;;;;4956748;28;90633;-70
2023/04/01 01:23:57;;;;;;;;;;;;;;;;;;4950886;28;89501;-69
2023/04/01 01:26:41;;;;;;;;;;;;;;;;;;4961496;28;89066;-71
2023/04/01 01:29:18;;;;;;;;;;;;;;;;;;4952765;28;89772;-72
2023/04/01 01:31:46;;;;;;;;;;;;;;;;;;4956005;28;89623;-71
2023/04/01 01:34:18;;;;;;;;;;;;;;;;;;4957628;28;89746;-67
2023/04/01 01:36:46;;;;;;;;;;;;;;;;;;4956232;28;89662;-69
2023/04/01 01:39:12;;;;;;;;;;;;;;;;;;4953506;28;89447;-67
2023/04/01 01:41:39;;;;;;;;;;;;;;;;;;4956439;28;92250;-66
2023/04/01 01:44:07;;;;;;;;;;;;;;;;;;4952904;28;89503;-72
2023/04/01 01:46:32;;;;;;;;;;;;;;;;;;4956237;28;89435;-71
2023/04/01 01:48:59;;;;;;;;;;;;;;;;;;4958335;28;90070;-67
2023/04/01 01:51:26;;;;;;;;;;;;;;;;;;4954748;28;89170;-66
2023/04/01 01:53:51;;;;;;;;;;;;;;;;;;4955852;28;91083;-68
2023/04/01 01:56:17;;;;;;;;;;;;;;;;;;4957211;28;89542;-69
2023/04/01 01:58:45;;;;;;;;;;;;;;;;;;4958321;28;89771;-70
2023/04/01 02:01:17;;;;;;;;;;;;;;;;;;4953967;28;89843;-66
2023/04/01 02:03:43;;;;;;;;;;;;;;;;;;4955516;28;89331;-70
2023/04/01 02:06:10;;;;;;;;;;;;;;;;;;4953060;28;90565;-66
2023/04/01 02:08:36;;;;;;;;;;;;;;;;;;4954432;28;90344;-72
2023/04/01 02:11:09;;;;;;;;;;;;;;;;;;4953831;28;90873;-66
2023/04/01 02:13:56;;;;;;;;;;;;;;;;;;4953104;28;89346;-68
2023/04/01 02:16:35;;;;;;;;;;;;;;;;;;4953293;28;90055;-68
2023/04/01 02:19:06;;;;;;;;;;;;;;;;;;4954392;28;89284;-67
2023/04/01 02:21:32;;;;;;;;;;;;;;;;;;4956850;28;90082;-67
2023/04/01 02:23:59;;;;;;;;;;;;;;;;;;4956208;28;89155;-66
2023/04/01 02:26:25;;;;;;;;;;;;;;;;;;4956294;28;89781;-67
2023/04/01 02:28:52;;;;;;;;;;;;;;;;;;4954549;28;90578;-66
2023/04/01 02:31:17;;;;;;;;;;;;;;;;;;4957124;28;89508;-71
2023/04/01 02:33:43;;;;;;;;;;;;;;;;;;4958459;28;90081;-69
2023/04/01 02:36:15;;;;;;;;;;;;;;;;;;4952533;28;89547;-67
2023/04/01 02:38:41;;;;;;;;;;;;;;;;;;4959311;28;89653;-71
2023/04/01 02:41:07;;;;;;;;;;;;;;;;;;4957619;28;89767;-69
2023/04/01 02:43:32;;;;;;;;;;;;;;;;;;4955945;28;90340;-68
2023/04/01 02:45:57;;;;;;;;;;;;;;;;;;4955469;28;89077;-66
2023/04/01 02:48:23;;;;;;;;;;;;;;;;;;4958152;28;89750;-67
2023/04/01 02:50:48;;;;;;;;;;;;;;;;;;4955603;28;89292;-66
2023/04/01 02:53:13;;;;;;;;;;;;;;;;;;4955571;28;89733;-65
2023/04/01 02:55:39;;;;;;;;;;;;;;;;;;4950952;28;90795;-68
2023/04/01 02:58:04;;;;;;;;;;;;;;;;;;4958106;28;90116;-66
2023/04/01 03:00:30;;;;;;;;;;;;;;;;;;4954089;28;90718;-66
2023/04/01 03:02:56;;;;;;;;;;;;;;;;;;4956651;28;89918;-68
2023/04/01 03:05:22;;;;;;;;;;;;;;;;;;4957649;28;89876;-70
2023/04/01 03:07:47;;;;;;;;;;;;;;;;;;4958139;28;89048;-73
2023/04/01 03:10:12;;;;;;;;;;;;;;;;;;4957865;28;89365;-67
2023/04/01 03:12:37;;;;;;;;;;;;;;;;;;4956088;28;89552;-72
2023/04/01 03:15:03;;;;;;;;;;;;;;;;;;4959385;28;89858;-70
2023/04/01 03:17:28;;;;;;;;;;;;;;;;;;4957677;28;89136;-71
2023/04/01 03:19:53;;;;;;;;;;;;;;;;;;4958507;28;89586;-68
2023/04/01 03:22:20;;;;;;;;;;;;;;;;;;4990467;28;91970;-70
2023/04/01 03:24:46;;;;;;;;;;;;;;;;;;4957649;28;90328;-69
2023/04/01 03:27:11;;;;;;;;;;;;;;;;;;4959400;28;89761;-71
2023/04/01 03:29:37;;;;;;;;;;;;;;;;;;4954411;28;91620;-71
2023/04/01 03:32:02;;;;;;;;;;;;;;;;;;4953031;28;89093;-73
2023/04/01 03:34:27;;;;;;;;;;;;;;;;;;4989947;28;91457;-71
2023/04/01 03:36:52;;;;;;;;;;;;;;;;;;4963129;28;89385;-72
2023/04/01 03:39:18;;;;;;;;;;;;;;;;;;4960954;28;89826;-67
2023/04/01 03:41:44;;;;;;;;;;;;;;;;;;4956889;28;89815;-71
2023/04/01 03:44:09;;;;;;;;;;;;;;;;;;4960206;28;90246;-67
2023/04/01 03:46:34;;;;;;;;;;;;;;;;;;4970429;28;91126;-67
2023/04/01 03:48:59;;;;;;;;;;;;;;;;;;4956389;28;89834;-68
2023/04/01 03:51:25;;;;;;;;;;;;;;;;;;4962480;28;90310;-71
2023/04/01 03:53:50;;;;;;;;;;;;;;;;;;4956083;28;89745;-71
2023/04/01 03:56:16;;;;;;;;;;;;;;;;;;4954630;28;89427;-70
2023/04/01 03:58:41;;;;;;;;;;;;;;;;;;4992744;28;89540;-69
2023/04/01 04:01:17;;;;;;;;;;;;;;;;;;4959409;28;90404;-69
2023/04/01 04:03:43;;;;;;;;;;;;;;;;;;4952738;28;89729;-70
2023/04/01 04:06:13;;;;;;;;;;;;;;;;;;4956735;28;91140;-70
2023/04/01 04:08:38;;;;;;;;;;;;;;;;;;4957266;28;89304;-68
2023/04/01 04:11:03;;;;;;;;;;;;;;;;;;4958185;28;90012;-67
2023/04/01 04:13:29;;;;;;;;;;;;;;;;;;4958888;28;89722;-68
2023/04/01 04:15:54;;;;;;;;;;;;;;;;;;4961743;28;92004;-67
2023/04/01 04:18:19;;;;;;;;;;;;;;;;;;4965653;28;90655;-68
2023/04/01 04:20:47;;;;;;;;;;;;;;;;;;4960308;28;89978;-68
2023/04/01 04:23:12;;;;;;;;;;;;;;;;;;4960978;28;90103;-67
2023/04/01 04:25:37;;;;;;;;;;;;;;;;;;4960562;28;90780;-66
2023/04/01 04:28:02;;;;;;;;;;;;;;;;;;4955764;28;89424;-67
2023/04/01 04:30:28;;;;;;;;;;;;;;;;;;4951018;28;89535;-68
2023/04/01 04:32:53;;;;;;;;;;;;;;;;;;4960480;28;90665;-67
2023/04/01 04:35:18;;;;;;;;;;;;;;;;;;4953307;28;89781;-66
2023/04/01 04:37:43;;;;;;;;;;;;;;;;;;4956049;28;89712;-69
2023/04/01 04:40:09;;;;;;;;;;;;;;;;;;4963468;28;89692;-67
2023/04/01 04:42:34;;;;;;;;;;;;;;;;;;4958743;28;88946;-66
2023/04/01 04:44:59;;;;;;;;;;;;;;;;;;4953187;28;90365;-68
2023/04/01 04:47:24;;;;;;;;;;;;;;;;;;4958916;28;90417;-67
2023/04/01 04:49:49;;;;;;;;;;;;;;;;;;4954873;28;89546;-68
2023/04/01 04:52:15;;;;;;;;;;;;;;;;;;4957418;28;90114;-67
2023/04/01 04:54:40;;;;;;;;;;;;;;;;;;4952672;28;89626;-66
2023/04/01 04:57:05;;;;;;;;;;;;;;;;;;4954172;28;89447;-67
2023/04/01 04:59:31;;;;;;;;;;;;;;;;;;4959811;28;90045;-67
2023/04/01 05:01:56;;;;;;;;;;;;;;;;;;4959431;28;90639;-67
2023/04/01 05:04:21;;;;;;;;;;;;;;;;;;4957460;28;89808;-68
2023/04/01 05:06:46;;;;;;;;;;;;;;;;;;4959909;28;89522;-72
2023/04/01 05:09:12;;;;;;;;;;;;;;;;;;4957733;28;89019;-70
2023/04/01 05:11:37;;;;;;;;;;;;;;;;;;4983830;28;91326;-69
2023/04/01 05:14:02;;;;;;;;;;;;;;;;;;4959443;28;89566;-76
2023/04/01 05:16:27;;;;;;;;;;;;;;;;;;4956421;28;89403;-68
2023/04/01 05:18:53;;;;;;;;;;;;;;;;;;4958973;28;89742;-72
2023/04/01 05:21:18;;;;;;;;;;;;;;;;;;4961309;28;89294;-73
2023/04/01 05:23:43;;;;;;;;;;;;;;;;;;4957269;28;89164;-74
2023/04/01 05:26:10;;;;;;;;;;;;;;;;;;4954518;28;89713;-74
2023/04/01 05:28:36;;;;;;;;;;;;;;;;;;4957707;28;90097;-69
2023/04/01 05:31:02;;;;;;;;;;;;;;;;;;4959418;28;91980;-73
2023/04/01 05:33:27;;;;;;;;;;;;;;;;;;4959409;28;89811;-75
2023/04/01 05:35:53;;;;;;;;;;;;;;;;;;4955847;28;90594;-73
2023/04/01 05:38:19;;;;;;;;;;;;;;;;;;4961000;28;90160;-66
2023/04/01 05:40:44;;;;;;;;;;;;;;;;;;4956827;28;90233;-75
2023/04/01 05:43:09;;;;;;;;;;;;;;;;;;4958682;28;90080;-74
2023/04/01 05:45:35;;;;;;;;;;;;;;;;;;4959601;28;89881;-75
2023/04/01 05:48:00;;;;;;;;;;;;;;;;;;4955356;28;89642;-72
2023/04/01 05:50:25;;;;;;;;;;;;;;;;;;4960387;28;89522;-72
2023/04/01 05:52:51;;;;;;;;;;;;;;;;;;4950182;28;90101;-69
2023/04/01 05:55:16;;;;;;;;;;;;;;;;;;4951487;28;89731;-67
2023/04/01 05:57:41;;;;;;;;;;;;;;;;;;4955184;28;89757;-69
2023/04/01 06:00:07;;;;;;;;;;;;;;;;;;4953309;28;89317;-64
2023/04/01 06:02:32;;;;;;;;;;;;;;;;;;4970671;28;90268;-64
2023/04/01 06:05:11;;;;;;;;;;;;;;;;;;4957078;28;89999;-64
2023/04/01 06:07:36;;;;;;;;;;;;;;;;;;4961128;28;91047;-61
2023/04/01 06:10:02;;;;;;;;;;;;;;;;;;4953330;28;91161;-63
2023/04/01 06:12:45;;;;;;;;;;;;;;;;;;4957671;28;93120;-63
2023/04/01 06:15:13;;;;;;;;;;;;;;;;;;4957584;28;89053;-62
2023/04/01 06:17:38;;;;;;;;;;;;;;;;;;4957594;28;89805;-64
2023/04/01 06:20:06;;;;;;;;;;;;;;;;;;4959060;28;92090;-63
2023/04/01 06:22:31;;;;;;;;;;;;;;;;;;4957370;28;89611;-64
2023/04/01 06:25:00;;;;;;;;;;;;;;;;;;4958308;28;89997;-62
2023/04/01 06:27:43;;;;;;;;;;;;;;;;;;4961345;28;91054;-64
2023/04/01 06:30:27;;;;;;;;;;;;;;;;;;4957822;28;89143;-64
2023/04/01 06:33:08;;;;;;;;;;;;;;;;;;4957444;28;89458;-63
2023/04/01 06:35:42;;;;;;;;;;;;;;;;;;4957580;28;90677;-64
2023/04/01 06:38:15;;;;;;;;;;;;;;;;;;4960909;28;90166;-63
2023/04/01 06:40:56;;;;;;;;;;;;;;;;;;4957331;28;91437;-62
2023/04/01 06:43:28;;;;;;;;;;;;;;;;;;4957058;28;89349;-64
2023/04/01 06:46:14;;;;;;;;;;;;;;;;;;4961373;28;90161;-63
2023/04/01 06:48:42;;;;;;;;;;;;;;;;;;4956746;28;90424;-61
2023/04/01 06:51:16;;;;;;;;;;;;;;;;;;4959251;28;88995;-62
2023/04/01 06:53:59;;;;;;;;;;;;;;;;;;4960237;28;89719;-63
2023/04/01 06:56:26;;;;;;;;;;;;;;;;;;4959706;28;90371;-63
2023/04/01 06:59:00;;;;;;;;;;;;;;;;;;4964298;28;89789;-62
2023/04/01 07:01:29;;;;;;;;;;;;;;;;;;4962124;28;89757;-62
2023/04/01 07:04:16;;;;;;;;;;;;;;;;;;4963266;28;90631;-62
2023/04/01 07:06:53;;;;;;;;;;;;;;;;;;4958333;28;91225;-64
2023/04/01 07:09:21;;;;;;;;;;;;;;;;;;4959973;28;89376;-63
2023/04/01 07:11:46;;;;;;;;;;;;;;;;;;4960144;28;89462;-62
2023/04/01 07:14:18;;;;;;;;;;;;;;;;;;4958271;28;89978;-64
2023/04/01 07:17:00;;;;;;;;;;;;;;;;;;4960772;28;89046;-63
2023/04/01 07:19:29;;;;;;;;;;;;;;;;;;4955217;28;89687;-62
2023/04/01 07:22:04;;;;;;;;;;;;;;;;;;4956474;28;90093;-63
2023/04/01 07:24:40;;;;;;;;;;;;;;;;;;4959138;28;89731;-62
2023/04/01 07:27:08;;;;;;;;;;;;;;;;;;4957844;28;92591;-63
2023/04/01 07:29:34;;;;;;;;;;;;;;;;;;4957219;28;90574;-62
2023/04/01 07:32:10;;;;;;;;;;;;;;;;;;4951365;28;92115;-62
2023/04/01 07:34:35;;;;;;;;;;;;;;;;;;4958625;28;90881;-63
2023/04/01 07:37:16;;;;;;;;;;;;;;;;;;4961030;28;90427;-63
2023/04/01 07:39:44;;;;;;;;;;;;;;;;;;4954239;28;90869;-64
2023/04/01 07:42:35;;;;;;;;;;;;;;;;;;4958028;28;91001;-63
2023/04/01 07:45:03;;;;;;;;;;;;;;;;;;4954081;28;89555;-62
2023/04/01 07:47:47;;;;;;;;;;;;;;;;;;4956106;28;90701;-66
2023/04/01 07:50:12;;;;;;;;;;;;;;;;;;4959190;28;90224;-63
2023/04/01 07:52:40;;;;;;;;;;;;;;;;;;4957119;28;89316;-65
2023/04/01 07:55:14;;;;;;;;;;;;;;;;;;4953132;28;89612;-62
2023/04/01 07:57:58;;;;;;;;;;;;;;;;;;4961052;28;90022;-64
2023/04/01 08:00:27;;;;;;;;;;;;;;;;;;4956847;28;89486;-62
2023/04/01 08:03:11;;;;;;;;;;;;;;;;;;4959756;28;89862;-64
2023/04/01 08:05:54;;;;;;;;;;;;;;;;;;4958146;28;89102;-63
2023/04/01 08:08:20;;;;;;;;;;;;;;;;;;4959125;28;89787;-69
2023/04/01 08:10:51;;;;;;;;;;;;;;;;;;4957946;28;89748;-64
2023/04/01 08:13:36;;;;;;;;;;;;;;;;;;4985745;28;90271;-62
2023/04/01 08:16:08;;;;;;;;;;;;;;;;;;4957138;28;89889;-65
2023/04/01 08:18:48;;;;;;;;;;;;;;;;;;4963302;28;89313;-62
2023/04/01 08:21:21;;;;;;;;;;;;;;;;;;4958563;28;89757;-62
2023/04/01 08:23:49;;;;;;;;;;;;;;;;;;4956342;28;89310;-62
2023/04/01 08:26:35;;;;;;;;;;;;;;;;;;4958654;28;89921;-62
2023/04/01 08:29:07;;;;;;;;;;;;;;;;;;4959412;28;89665;-62
2023/04/01 08:31:47;;;;;;;;;;;;;;;;;;4957568;28;89622;-62
2023/04/01 08:34:18;;;;;;;;;;;;;;;;;;4955041;28;88935;-66
2023/04/01 08:36:48;;;;;;;;;;;;;;;;;;4957958;28;89716;-64
2023/04/01 08:39:18;;;;;;;;;;;;;;;;;;4954279;28;89618;-64
2023/04/01 08:42:01;;;;;;;;;;;;;;;;;;4956905;28;91424;-64
2023/04/01 08:44:41;;;;;;;;;;;;;;;;;;4957931;28;90835;-64
2023/04/01 08:47:13;;;;;;;;;;;;;;;;;;4959080;28;89152;-64
2023/04/01 08:49:57;;;;;;;;;;;;;;;;;;4959146;28;90310;-62
2023/04/01 08:52:25;;;;;;;;;;;;;;;;;;4960705;28;89314;-62
2023/04/01 08:55:09;;;;;;;;;;;;;;;;;;4953755;28;89412;-62
2023/04/01 08:57:46;;;;;;;;;;;;;;;;;;4955972;28;89789;-62
2023/04/01 09:00:30;;;;;;;;;;;;;;;;;;4957302;28;89481;-62
2023/04/01 09:02:55;;;;;;;;;;;;;;;;;;4951352;28;89436;-62
2023/04/01 09:05:22;;;;;;;;;;;;;;;;;;4954137;28;90988;-62
2023/04/01 09:08:05;;;;;;;;;;;;;;;;;;4963613;28;90206;-63
2023/04/01 09:10:46;;;;;;;;;;;;;;;;;;4953315;28;89735;-62
2023/04/01 09:13:14;;;;;;;;;;;;;;;;;;4962001;28;89932;-62
2023/04/01 09:15:54;;;;;;;;;;;;;;;;;;4959877;28;89778;-62
2023/04/01 09:18:38;;;;;;;;;;;;;;;;;;4958805;28;91207;-62
2023/04/01 09:21:09;;;;;;;;;;;;;;;;;;4957802;28;89663;-63
2023/04/01 09:23:35;;;;;;;;;;;;;;;;;;4954989;28;89789;-62
2023/04/01 09:26:18;;;;;;;;;;;;;;;;;;4956472;28;89673;-63
2023/04/01 09:28:49;;;;;;;;;;;;;;;;;;4957132;28;89594;-66
2023/04/01 09:31:42;;;;;;;;;;;;;;;;;;4961510;28;89618;-71
2023/04/01 09:34:08;;;;;;;;;;;;;;;;;;4953278;28;90772;-64
2023/04/01 09:36:36;;;;;;;;;;;;;;;;;;4956512;28;89642;-63
2023/04/01 09:39:10;;;;;;;;;;;;;;;;;;4958118;28;89705;-64
2023/04/01 09:41:42;;;;;;;;;;;;;;;;;;4955734;28;89789;-63
2023/04/01 09:44:26;;;;;;;;;;;;;;;;;;4957872;28;89280;-64
2023/04/01 09:47:06;;;;;;;;;;;;;;;;;;4959709;28;89736;-63
2023/04/01 09:49:37;;;;;;;;;;;;;;;;;;4949862;28;90185;-64
2023/04/01 09:52:18;;;;;;;;;;;;;;;;;;4958838;28;89101;-64
2023/04/01 10:09:09;;;;;;;;;;;;;;;;;;4986890;28;81747;-61
2023/04/01 10:11:53;;;;;;;;;;;;;;;;;;4973452;28;89221;-66
2023/04/01 10:14:46;;;;;;;;;;;;;;;;;;4978537;28;89582;-62
2023/04/01 10:17:20;;;;;;;;;;;;;;;;;;4977143;28;89502;-61
2023/04/01 10:20:05;;;;;;;;;;;;;;;;;;5003665;27;91051;-60
2023/04/01 10:22:33;;;;;;;;;;;;;;;;;;4972790;28;90301;-61
2023/04/01 10:24:58;;;;;;;;;;;;;;;;;;4987135;28;89808;-63
2023/04/01 10:27:36;;;;;;;;;;;;;;;;;;4978878;28;90354;-64
2023/04/01 10:30:20;;;;;;;;;;;;;;;;;;4979669;28;90239;-60
2023/04/01 10:33:03;;;;;;;;;;;;;;;;;;4971154;28;89579;-60
2023/04/01 10:35:44;;;;;;;;;;;;;;;;;;4975914;28;89950;-65
2023/04/01 10:38:15;;;;;;;;;;;;;;;;;;4976870;28;89650;-60
2023/04/01 10:40:41;;;;;;;;;;;;;;;;;;4975400;28;91702;-61
2023/04/01 10:43:09;;;;;;;;;;;;;;;;;;4977168;28;90859;-61
2023/04/01 10:45:50;;;;;;;;;;;;;;;;;;4976802;28;89707;-60
2023/04/01 10:48:18;;;;;;;;;;;;;;;;;;4976488;28;89723;-60
2023/04/01 10:51:10;;;;;;;;;;;;;;;;;;4976018;28;90931;-61
2023/04/01 10:53:54;;;;;;;;;;;;;;;;;;4978555;28;90152;-60
2023/04/01 10:56:35;;;;;;;;;;;;;;;;;;4975939;28;89544;-61
2023/04/01 10:59:06;;;;;;;;;;;;;;;;;;4971708;28;89660;-59
2023/04/01 11:01:50;;;;;;;;;;;;;;;;;;4976454;28;89736;-63
2023/04/01 11:04:18;;;;;;;;;;;;;;;;;;4971362;28;91108;-67
2023/04/01 11:06:43;;;;;;;;;;;;;;;;;;4985862;28;89136;-65
2023/04/01 11:09:27;;;;;;;;;;;;;;;;;;4974252;28;89678;-61
2023/04/01 11:11:52;;;;;;;;;;;;;;;;;;4972775;28;89362;-62
2023/04/01 11:14:36;;;;;;;;;;;;;;;;;;4968167;28;90719;-61
2023/04/01 11:17:24;;;;;;;;;;;;;;;;;;4977200;28;89195;-62
2023/04/01 11:19:52;;;;;;;;;;;;;;;;;;4964068;28;90248;-65
2023/04/01 11:22:30;;;;;;;;;;;;;;;;;;4961469;28;89769;-64
2023/04/01 11:25:08;;;;;;;;;;;;;;;;;;4958670;28;89892;-63
2023/04/01 11:27:53;;;;;;;;;;;;;;;;;;4956328;28;89754;-61
2023/04/01 11:30:24;;;;;;;;;;;;;;;;;;4958101;28;89796;-67
2023/04/01 11:33:08;;;;;;;;;;;;;;;;;;4958916;28;89928;-66
2023/04/01 11:35:36;;;;;;;;;;;;;;;;;;4963932;28;89555;-64
2023/04/01 11:38:01;;;;;;;;;;;;;;;;;;4955226;28;90808;-62
2023/04/01 11:40:40;;;;;;;;;;;;;;;;;;4962336;28;89269;-63
2023/04/01 11:43:15;;;;;;;;;;;;;;;;;;4962252;28;90263;-65
2023/04/01 11:45:50;;;;;;;;;;;;;;;;;;4959849;28;89338;-65
2023/04/01 11:48:24;;;;;;;;;;;;;;;;;;4962860;28;89495;-63
2023/04/01 11:50:58;;;;;;;;;;;;;;;;;;4960391;28;91059;-59
2023/04/01 11:53:38;;;;;;;;;;;;;;;;;;4958919;28;91944;-65
2023/04/01 11:56:06;;;;;;;;;;;;;;;;;;4957661;28;89653;-65
2023/04/01 11:58:50;;;;;;;;;;;;;;;;;;4958073;28;89460;-65
2023/04/01 12:01:42;;;;;;;;;;;;;;;;;;4961491;28;89809;-63
2023/04/01 12:04:26;;;;;;;;;;;;;;;;;;4962726;28;89745;-62
2023/04/01 12:07:02;;;;;;;;;;;;;;;;;;4958643;28;90121;-61
2023/04/01 12:09:46;;;;;;;;;;;;;;;;;;4959763;28;89045;-61
2023/04/01 12:12:20;;;;;;;;;;;;;;;;;;4962533;28;89710;-62
2023/04/01 12:14:57;;;;;;;;;;;;;;;;;;4961822;28;89368;-64
2023/04/01 12:17:25;;;;;;;;;;;;;;;;;;4960754;28;89608;-62
2023/04/01 12:19:56;;;;;;;;;;;;;;;;;;4958012;28;89762;-64
2023/04/01 12:22:35;;;;;;;;;;;;;;;;;;4955241;28;89607;-64
2023/04/01 12:25:00;;;;;;;;;;;;;;;;;;4958668;28;89746;-63
2023/04/01 12:27:31;;;;;;;;;;;;;;;;;;4965216;28;91012;-61
2023/04/01 12:29:59;;;;;;;;;;;;;;;;;;4961833;28;89603;-63
2023/04/01 12:32:28;;;;;;;;;;;;;;;;;;4961880;28;90348;-62
2023/04/01 12:35:11;;;;;;;;;;;;;;;;;;4956441;28;89367;-65
2023/04/01 12:37:55;;;;;;;;;;;;;;;;;;4956644;28;89560;-62
2023/04/01 12:40:38;;;;;;;;;;;;;;;;;;4959551;28;89316;-64
2023/04/01 12:43:21;;;;;;;;;;;;;;;;;;4956278;28;89168;-64
2023/04/01 12:45:57;;;;;;;;;;;;;;;;;;4959363;28;89830;-65
2023/04/01 12:48:33;;;;;;;;;;;;;;;;;;4960778;28;90441;-64
2023/04/01 12:51:17;;;;;;;;;;;;;;;;;;4959243;28;89282;-61
2023/04/01 12:54:01;;;;;;;;;;;;;;;;;;4964977;28;89583;-60
2023/04/01 12:56:38;;;;;;;;;;;;;;;;;;4957460;28;89566;-69
2023/04/01 12:59:18;;;;;;;;;;;;;;;;;;4958879;28;89636;-63
2023/04/01 13:01:55;;;;;;;;;;;;;;;;;;4957562;28;90038;-64
2023/04/01 13:04:41;;;;;;;;;;;;;;;;;;4957738;28;89525;-61
2023/04/01 13:07:14;;;;;;;;;;;;;;;;;;4961618;28;90927;-66
2023/04/01 13:09:54;;;;;;;;;;;;;;;;;;4957724;28;90146;-61
2023/04/01 13:12:20;;;;;;;;;;;;;;;;;;4964179;28;89101;-62
2023/04/01 13:14:57;;;;;;;;;;;;;;;;;;4959793;28;89775;-66
2023/04/01 13:17:31;;;;;;;;;;;;;;;;;;4959162;28;89482;-64
2023/04/01 13:20:09;;;;;;;;;;;;;;;;;;4960989;28;89078;-62
2023/04/01 13:22:34;;;;;;;;;;;;;;;;;;4958372;28;91088;-65
2023/04/01 13:25:06;;;;;;;;;;;;;;;;;;4964381;28;89600;-64
2023/04/01 13:27:38;;;;;;;;;;;;;;;;;;4963387;28;89072;-64
2023/04/01 13:30:21;;;;;;;;;;;;;;;;;;4963761;28;89498;-63
2023/04/01 13:33:00;;;;;;;;;;;;;;;;;;4958209;28;89122;-63
2023/04/01 13:35:50;;;;;;;;;;;;;;;;;;4962062;28;89030;-65
2023/04/01 13:38:28;;;;;;;;;;;;;;;;;;4961769;28;89372;-65
2023/04/01 13:40:53;;;;;;;;;;;;;;;;;;4957921;28;90047;-64
2023/04/01 13:43:24;;;;;;;;;;;;;;;;;;4962468;28;91136;-64
2023/04/01 13:45:58;;;;;;;;;;;;;;;;;;4964391;28;90101;-61
2023/04/01 13:48:26;;;;;;;;;;;;;;;;;;4958042;28;89676;-66
2023/04/01 13:51:00;;;;;;;;;;;;;;;;;;4959337;28;89758;-62
2023/04/01 13:53:34;;;;;;;;;;;;;;;;;;4957278;28;89363;-62
2023/04/01 13:56:12;;;;;;;;;;;;;;;;;;4963102;28;90592;-63
2023/04/01 13:58:43;;;;;;;;;;;;;;;;;;4965734;28;90226;-63
2023/04/01 14:01:17;;;;;;;;;;;;;;;;;;4959246;28;89015;-64
2023/04/01 14:03:42;;;;;;;;;;;;;;;;;;4963034;28;90828;-63
2023/04/01 14:06:14;;;;;;;;;;;;;;;;;;4959213;28;89517;-64
2023/04/01 14:08:59;;;;;;;;;;;;;;;;;;4975578;28;90199;-63
2023/04/01 14:11:33;;;;;;;;;;;;;;;;;;4956573;28;90534;-63
2023/04/01 14:14:00;;;;;;;;;;;;;;;;;;4961830;28;89255;-63
2023/04/01 14:16:43;;;;;;;;;;;;;;;;;;4958641;28;89894;-62
2023/04/01 14:19:11;;;;;;;;;;;;;;;;;;4954321;28;90084;-64
2023/04/01 14:21:37;;;;;;;;;;;;;;;;;;4960868;28;89726;-63
2023/04/01 14:24:14;;;;;;;;;;;;;;;;;;4960033;28;89666;-59
2023/04/01 14:26:54;;;;;;;;;;;;;;;;;;4957581;28;90489;-63
2023/04/01 14:29:39;;;;;;;;;;;;;;;;;;4973045;28;90802;-61
2023/04/01 14:32:11;;;;;;;;;;;;;;;;;;4961048;28;90419;-64
2023/04/01 14:34:39;;;;;;;;;;;;;;;;;;4958031;28;89754;-64
2023/04/01 14:37:14;;;;;;;;;;;;;;;;;;4958152;28;89512;-63
2023/04/01 14:39:42;;;;;;;;;;;;;;;;;;4958329;28;90108;-63
2023/04/01 14:42:26;;;;;;;;;;;;;;;;;;4964534;28;90744;-64
2023/04/01 14:45:06;;;;;;;;;;;;;;;;;;4953334;28;89791;-62
2023/04/01 14:47:43;;;;;;;;;;;;;;;;;;4955372;28;89205;-63
2023/04/01 14:50:20;;;;;;;;;;;;;;;;;;4955387;28;88961;-63
2023/04/01 14:53:05;;;;;;;;;;;;;;;;;;4960246;28;89764;-63
2023/04/01 14:55:43;;;;;;;;;;;;;;;;;;4960085;28;89300;-65
2023/04/01 14:58:08;;;;;;;;;;;;;;;;;;4963608;28;89941;-66
2023/04/01 15:00:52;;;;;;;;;;;;;;;;;;4962361;28;91151;-61
2023/04/01 15:03:20;;;;;;;;;;;;;;;;;;4961166;28;89891;-61
2023/04/01 15:06:11;;;;;;;;;;;;;;;;;;4968825;28;89760;-61
2023/04/01 15:09:12;;;;;;;;;;;;;;;;;;4965239;28;90794;-63
2023/04/01 15:11:37;;;;;;;;;;;;;;;;;;4963018;28;90695;-63
2023/04/01 15:14:05;;;;;;;;;;;;;;;;;;4964078;28;90584;-62
2023/04/01 15:16:50;;;;;;;;;;;;;;;;;;4961022;28;89237;-61
2023/04/01 15:19:24;;;;;;;;;;;;;;;;;;4960178;28;89818;-61
2023/04/01 15:22:01;;;;;;;;;;;;;;;;;;4957210;28;90718;-62
2023/04/01 15:24:40;;;;;;;;;;;;;;;;;;4959191;28;90526;-61
2023/04/01 15:27:09;;;;;;;;;;;;;;;;;;4959851;28;89228;-63
2023/04/01 15:29:37;;;;;;;;;;;;;;;;;;4962712;28;91227;-62
2023/04/01 15:32:14;;;;;;;;;;;;;;;;;;4962710;28;89954;-63
2023/04/01 15:34:48;;;;;;;;;;;;;;;;;;4964140;28;91061;-63
2023/04/01 15:37:28;;;;;;;;;;;;;;;;;;4957509;28;89612;-63
2023/04/01 15:39:57;;;;;;;;;;;;;;;;;;4959896;28;89601;-63
2023/04/01 15:42:22;;;;;;;;;;;;;;;;;;4962254;28;92449;-61
2023/04/01 15:44:47;;;;;;;;;;;;;;;;;;4955987;28;89360;-61
2023/04/01 15:47:25;;;;;;;;;;;;;;;;;;4958896;28;89070;-62
2023/04/01 15:49:55;;;;;;;;;;;;;;;;;;4956642;28;91083;-64
2023/04/01 15:52:36;;;;;;;;;;;;;;;;;;4964741;28;89189;-63
2023/04/01 15:55:18;;;;;;;;;;;;;;;;;;4959211;28;88893;-63
2023/04/01 15:58:02;;;;;;;;;;;;;;;;;;4965514;28;89494;-62
2023/04/01 16:00:32;;;;;;;;;;;;;;;;;;4955225;28;89574;-62
2023/04/01 16:03:00;;;;;;;;;;;;;;;;;;4954304;28;91872;-61
2023/04/01 16:05:29;;;;;;;;;;;;;;;;;;4957738;28;89669;-61
2023/04/01 16:08:12;;;;;;;;;;;;;;;;;;4956075;28;89945;-62
2023/04/01 16:10:40;;;;;;;;;;;;;;;;;;4958970;28;90057;-63
2023/04/01 16:13:19;;;;;;;;;;;;;;;;;;4964613;28;89901;-63
2023/04/01 16:15:57;;;;;;;;;;;;;;;;;;4965128;28;90715;-63
2023/04/01 16:18:31;;;;;;;;;;;;;;;;;;4973878;28;89231;-64
2023/04/01 16:20:56;;;;;;;;;;;;;;;;;;4962192;28;89250;-63
2023/04/01 16:23:40;;;;;;;;;;;;;;;;;;4957396;28;89545;-63
2023/04/01 16:26:07;;;;;;;;;;;;;;;;;;4961251;28;90316;-63
2023/04/01 16:28:44;;;;;;;;;;;;;;;;;;4961934;28;89669;-64
2023/04/01 16:31:16;;;;;;;;;;;;;;;;;;4964359;28;89558;-63
2023/04/01 16:33:41;;;;;;;;;;;;;;;;;;4963957;28;90369;-64
2023/04/01 16:36:19;;;;;;;;;;;;;;;;;;4958522;28;89919;-62
2023/04/01 16:38:47;;;;;;;;;;;;;;;;;;4964698;28;90629;-63
2023/04/01 16:41:13;;;;;;;;;;;;;;;;;;4958520;28;89116;-63
2023/04/01 16:43:42;;;;;;;;;;;;;;;;;;4961708;28;89705;-63
2023/04/01 16:46:10;;;;;;;;;;;;;;;;;;4959663;28;89486;-63
2023/04/01 16:48:55;;;;;;;;;;;;;;;;;;4960869;28;89130;-63
2023/04/01 16:51:22;;;;;;;;;;;;;;;;;;4963973;28;89848;-64
2023/04/01 16:54:07;;;;;;;;;;;;;;;;;;4961654;28;90227;-61
2023/04/01 16:56:39;;;;;;;;;;;;;;;;;;4959178;28;89914;-63
2023/04/01 16:59:15;;;;;;;;;;;;;;;;;;4965058;28;89889;-61
2023/04/01 17:01:53;;;;;;;;;;;;;;;;;;4962766;28;89067;-61
2023/04/01 17:04:37;;;;;;;;;;;;;;;;;;4956120;28;89572;-64
2023/04/01 17:07:21;;;;;;;;;;;;;;;;;;4958035;28;89776;-62
2023/04/01 17:09:58;;;;;;;;;;;;;;;;;;4953970;28;89000;-62
2023/04/01 17:12:42;;;;;;;;;;;;;;;;;;4957363;28;89773;-62
2023/04/01 17:15:26;;;;;;;;;;;;;;;;;;4961696;28;89739;-63
2023/04/01 17:17:51;;;;;;;;;;;;;;;;;;4964200;28;90043;-62
2023/04/01 17:20:37;;;;;;;;;;;;;;;;;;4963066;28;90425;-61
2023/04/01 17:23:05;;;;;;;;;;;;;;;;;;4971062;28;90617;-63
2023/04/01 17:25:30;;;;;;;;;;;;;;;;;;4976003;28;89348;-63
2023/04/01 17:27:55;;;;;;;;;;;;;;;;;;4973165;28;90331;-64
2023/04/01 17:30:32;;;;;;;;;;;;;;;;;;4972733;28;89214;-64
2023/04/01 17:33:16;;;;;;;;;;;;;;;;;;4968543;28;90494;-64
2023/04/01 17:36:00;;;;;;;;;;;;;;;;;;4974922;28;90184;-64